Time,TemperatureF,DewpointF,PressureIn,WindDirection,WindDirectionDegrees,WindSpeedMPH,WindSpeedGustMPH,Humidity,HourlyPrecipIn,Conditions,Clouds,dailyrainin,SoftwareType,DateUTC
2013-02-03 10:34:00,19.5,12.6,29.94,WSW,248,0.0,-999.0,74,0.00,,,0.00,Wunderground v.1.15,2013-02-03 15:34:00,
2013-02-03 10:39:00,19.5,12.6,29.94,WSW,248,0.0,-999.0,74,0.00,,,0.00,Wunderground v.1.15,2013-02-03 15:39:00,
2013-02-03 10:44:00,19.5,12.6,29.94,WSW,248,0.0,-999.0,74,0.00,,,0.00,Wunderground v.1.15,2013-02-03 15:44:00,
2013-02-03 10:49:00,19.5,12.6,29.94,WSW,248,0.0,-999.0,74,0.00,,,0.00,Wunderground v.1.15,2013-02-03 15:49:00,
2013-02-03 10:54:00,19.5,12.6,29.94,WSW,248,0.0,-999.0,74,0.00,,,0.00,Wunderground v.1.15,2013-02-03 15:54:00,
2013-02-03 10:59:00,19.5,12.6,29.94,WSW,248,0.0,-999.0,74,0.00,,,0.00,Wunderground v.1.15,2013-02-03 15:59:00,
2013-02-03 11:04:00,19.5,12.6,29.94,WSW,248,0.0,-999.0,74,0.00,,,0.00,Wunderground v.1.15,2013-02-03 16:04:00,
2013-02-03 11:09:00,19.5,12.6,29.94,WSW,248,0.0,-999.0,74,0.00,,,0.00,Wunderground v.1.15,2013-02-03 16:09:00,
2013-02-03 11:14:00,19.5,12.6,29.94,WSW,248,0.0,-999.0,74,0.00,,,0.00,Wunderground v.1.15,2013-02-03 16:14:00,
2013-02-03 11:19:00,19.4,13.4,29.93,WSW,248,0.0,-999.0,77,0.00,,,0.00,Wunderground v.1.15,2013-02-03 16:19:00,
2013-02-03 11:24:00,19.4,13.4,29.93,WSW,248,0.0,-999.0,77,0.00,,,0.00,Wunderground v.1.15,2013-02-03 16:24:00,
2013-02-03 11:34:00,19.4,13.4,29.93,WSW,248,0.0,-999.0,77,0.00,,,0.00,Wunderground v.1.15,2013-02-03 16:34:00,
2013-02-03 11:44:00,19.4,13.7,29.93,WSW,238,0.0,0.0,78,0.00,,,0.00,Wunderground v.1.15,2013-02-03 16:44:00,
2013-02-03 11:45:00,19.5,13.8,29.93,SW,225,0.0,1.0,78,0.28,,---,0.00,VWS V14.01,2013-02-03 16:45:00,
2013-02-03 11:50:00,19.4,13.7,29.93,West,266,0.0,2.0,78,0.00,,,0.00,Wunderground v.1.15,2013-02-03 16:50:00,
2013-02-03 11:56:00,19.6,13.9,29.92,West,262,0.0,0.0,78,0.00,,,0.00,Wunderground v.1.15,2013-02-03 16:56:00,
2013-02-03 12:00:00,19.7,13.7,29.92,SW,225,0.0,2.0,77,0.00,,---,0.00,VWS V14.01,2013-02-03 17:00:00,
2013-02-03 12:02:00,19.8,13.8,29.92,West,262,0.0,1.0,77,0.00,,,0.00,Wunderground v.1.15,2013-02-03 17:02:00,
2013-02-03 12:08:00,19.7,13.1,29.92,SSW,205,0.0,1.0,75,0.00,,,0.00,Wunderground v.1.15,2013-02-03 17:08:00,
2013-02-03 12:14:00,19.9,13.6,29.91,WSW,257,0.0,1.0,76,0.00,,,0.00,Wunderground v.1.15,2013-02-03 17:14:00,
2013-02-03 12:15:00,20.0,13.7,29.91,SW,225,0.0,3.0,76,0.00,,---,0.00,VWS V14.01,2013-02-03 17:15:00,
2013-02-03 12:20:00,19.9,12.9,29.92,SW,236,1.0,2.0,74,0.00,,,0.00,Wunderground v.1.15,2013-02-03 17:20:00,
2013-02-03 12:30:00,20.2,13.2,29.91,SW,223,1.0,2.0,74,0.00,,,0.00,Wunderground v.1.15,2013-02-03 17:30:00,
2013-02-03 12:36:00,20.4,13.7,29.91,WNW,299,1.0,3.0,75,0.00,,,0.00,Wunderground v.1.15,2013-02-03 17:36:00,
2013-02-03 12:42:00,20.7,13.7,29.91,WSW,252,0.0,0.0,74,0.00,,,0.00,Wunderground v.1.15,2013-02-03 17:42:00,
2013-02-03 12:45:00,20.6,13.6,29.91,SW,225,0.0,5.0,74,0.00,,---,0.00,VWS V14.01,2013-02-03 17:45:00,
2013-02-03 12:48:00,20.5,13.5,29.91,SW,219,0.0,0.0,74,0.00,,,0.00,Wunderground v.1.15,2013-02-03 17:48:00,
2013-02-03 12:54:00,20.9,13.9,29.91,West,264,0.0,1.0,74,0.00,,,0.00,Wunderground v.1.15,2013-02-03 17:54:00,
2013-02-03 13:00:00,20.9,13.6,29.91,West,259,0.0,0.0,73,0.00,,,0.00,Wunderground v.1.15,2013-02-03 18:00:00,
2013-02-03 13:10:00,20.6,13.9,29.91,West,264,0.0,1.0,75,0.00,,,0.00,Wunderground v.1.15,2013-02-03 18:10:00,
2013-02-03 13:15:00,20.5,13.2,29.91,SW,225,0.0,8.0,73,0.00,,---,0.00,VWS V14.01,2013-02-03 18:15:00,
2013-02-03 13:16:00,20.4,13.1,29.91,WSW,248,0.0,1.0,73,0.00,,,0.00,Wunderground v.1.15,2013-02-03 18:16:00,
2013-02-03 13:22:00,20.2,13.8,29.91,NNW,341,1.0,1.0,76,0.00,,,0.00,Wunderground v.1.15,2013-02-03 18:22:00,
2013-02-03 13:28:00,20.5,13.5,29.91,SW,222,0.0,1.0,74,0.00,,,0.00,Wunderground v.1.15,2013-02-03 18:28:00,
2013-02-03 13:30:00,20.9,13.9,29.91,SW,225,0.0,4.0,74,0.00,,---,0.00,VWS V14.01,2013-02-03 18:30:00,
2013-02-03 13:34:00,21.0,13.7,29.91,West,271,0.0,0.0,73,0.00,,,0.00,Wunderground v.1.15,2013-02-03 18:34:00,
2013-02-03 13:40:00,21.5,14.2,29.91,WSW,258,1.0,1.0,73,0.00,,,0.00,Wunderground v.1.15,2013-02-03 18:40:00,
2013-02-03 13:45:00,21.6,13.7,29.91,WSW,248,0.0,4.0,71,0.00,,---,0.00,VWS V14.01,2013-02-03 18:45:00,
2013-02-03 13:46:00,21.6,13.6,29.91,West,279,0.0,2.0,71,0.00,,,0.00,Wunderground v.1.15,2013-02-03 18:46:00,
2013-02-03 14:00:00,21.1,13.5,29.91,ESE,112,1.0,1.0,72,0.00,,,0.00,Wunderground v.1.15,2013-02-03 19:00:00,
2013-02-03 14:10:00,20.4,13.4,29.91,West,278,0.0,0.0,74,0.00,,,0.00,Wunderground v.1.15,2013-02-03 19:10:00,
2013-02-03 14:15:00,20.3,13.4,29.91,West,270,0.0,4.0,74,0.00,,---,0.00,VWS V14.01,2013-02-03 19:15:00,
2013-02-03 14:16:00,20.2,13.2,29.91,WSW,248,0.0,1.0,74,0.00,,,0.00,Wunderground v.1.15,2013-02-03 19:16:00,
2013-02-03 14:22:00,20.1,13.1,29.91,West,264,0.0,0.0,74,0.00,,,0.00,Wunderground v.1.15,2013-02-03 19:22:00,
2013-02-03 14:30:00,19.9,13.0,29.91,West,270,0.0,4.0,74,0.00,,---,0.00,VWS V14.01,2013-02-03 19:30:00,
2013-02-03 14:38:00,19.7,13.7,29.91,West,279,0.0,0.0,77,0.00,,,0.00,Wunderground v.1.15,2013-02-03 19:38:00,
2013-02-03 14:45:00,19.8,13.2,29.92,WSW,248,0.0,4.0,75,0.00,,---,0.00,VWS V14.01,2013-02-03 19:45:00,
2013-02-03 14:46:00,19.9,13.3,29.92,SW,224,0.0,2.0,75,0.00,,,0.00,Wunderground v.1.15,2013-02-03 19:46:00,
2013-02-03 14:52:00,19.9,12.9,29.92,SW,236,1.0,1.0,74,0.00,,,0.00,Wunderground v.1.15,2013-02-03 19:52:00,
2013-02-03 15:00:00,20.1,13.5,29.91,WSW,248,1.0,6.0,75,0.00,,---,0.00,VWS V14.01,2013-02-03 20:00:00,
2013-02-03 15:02:00,20.1,13.4,29.91,West,279,0.0,0.0,75,0.00,,,0.00,Wunderground v.1.15,2013-02-03 20:02:00,
2013-02-03 15:15:00,20.5,14.1,29.92,WSW,248,0.0,4.0,76,0.00,,---,0.00,VWS V14.01,2013-02-03 20:15:00,
2013-02-03 15:20:00,20.2,13.5,29.92,WSW,252,0.0,0.0,75,0.00,,,0.00,Wunderground v.1.15,2013-02-03 20:20:00,
2013-02-03 15:26:00,19.9,13.6,29.92,WSW,248,1.0,1.0,76,0.00,,,0.00,Wunderground v.1.15,2013-02-03 20:26:00,
2013-02-03 15:30:00,19.8,13.5,29.92,SW,225,1.0,5.0,76,0.00,,---,0.00,VWS V14.01,2013-02-03 20:30:00,
2013-02-03 15:44:00,20.1,13.4,29.92,West,277,1.0,1.0,75,0.00,,,0.00,Wunderground v.1.15,2013-02-03 20:44:00,
2013-02-03 15:45:00,20.1,13.5,29.92,SW,225,1.0,6.0,75,0.00,,---,0.00,VWS V14.01,2013-02-03 20:45:00,
2013-02-03 16:00:00,20.2,13.2,29.93,WSW,248,1.0,5.0,74,0.00,,---,0.00,VWS V14.01,2013-02-03 21:00:00,
2013-02-03 16:05:00,20.1,13.4,29.93,West,270,1.0,1.0,75,0.00,,,0.00,Wunderground v.1.15,2013-02-03 21:05:00,
2013-02-03 16:15:00,19.9,13.3,29.93,West,265,1.0,1.0,75,0.00,,,0.00,Wunderground v.1.15,2013-02-03 21:15:00,
2013-02-03 16:25:00,19.9,13.3,29.93,WSW,237,1.0,1.0,75,0.00,,,0.00,Wunderground v.1.15,2013-02-03 21:25:00,
2013-02-03 16:30:00,19.9,12.3,29.93,SW,225,1.0,9.0,72,0.00,,---,0.00,VWS V14.01,2013-02-03 21:30:00,
2013-02-03 16:35:00,19.8,11.9,29.93,SW,222,1.0,1.0,71,0.00,,,0.00,Wunderground v.1.15,2013-02-03 21:35:00,
2013-02-03 16:45:00,19.8,11.6,29.93,WSW,248,1.0,6.0,70,0.00,,---,0.00,VWS V14.01,2013-02-03 21:45:00,
2013-02-03 17:00:00,19.7,12.5,29.94,SW,225,1.0,6.0,73,0.00,,---,0.00,VWS V14.01,2013-02-03 22:00:00,
2013-02-03 17:10:00,19.7,13.1,29.94,WSW,248,1.0,1.0,75,0.00,,,0.00,Wunderground v.1.15,2013-02-03 22:10:00,
2013-02-03 17:15:00,19.7,12.8,29.94,SW,225,1.0,5.0,74,0.00,,---,0.00,VWS V14.01,2013-02-03 22:15:00,
2013-02-03 17:25:00,19.6,12.7,29.94,WSW,253,1.0,1.0,74,0.00,,,0.00,Wunderground v.1.15,2013-02-03 22:25:00,
2013-02-03 17:30:00,19.5,12.9,29.94,SW,225,1.0,8.0,75,0.00,,---,0.00,VWS V14.01,2013-02-03 22:30:00,
2013-02-03 17:40:00,19.2,13.2,29.94,WSW,247,1.0,1.0,77,0.00,,,0.00,Wunderground v.1.15,2013-02-03 22:40:00,
2013-02-03 17:45:00,19.0,13.0,29.94,SSW,197,1.0,3.0,77,0.00,,,0.00,Wunderground v.1.15,2013-02-03 22:45:00,
2013-02-03 17:50:00,18.9,12.9,29.94,West,275,1.0,1.0,77,0.00,,,0.00,Wunderground v.1.15,2013-02-03 22:50:00,
2013-02-03 17:55:00,18.8,13.1,29.95,WSW,248,1.0,2.0,78,0.00,,,0.00,Wunderground v.1.15,2013-02-03 22:55:00,
2013-02-03 18:00:00,18.7,12.7,29.95,SW,225,1.0,12.0,77,0.00,,---,0.00,VWS V14.01,2013-02-03 23:00:00,
2013-02-03 18:05:00,18.6,13.2,29.95,WSW,238,2.0,2.0,79,0.00,,,0.00,Wunderground v.1.15,2013-02-03 23:05:00,
2013-02-03 18:15:00,18.5,13.1,29.95,WSW,248,1.0,12.0,79,0.00,,---,0.00,VWS V14.01,2013-02-03 23:15:00,
2013-02-03 18:20:00,18.5,12.8,29.96,West,274,1.0,5.0,78,0.00,,,0.00,Wunderground v.1.15,2013-02-03 23:20:00,
2013-02-03 18:30:00,18.5,12.8,29.97,SW,232,1.0,5.0,78,0.00,,,0.00,Wunderground v.1.15,2013-02-03 23:30:00,
2013-02-03 18:45:00,18.5,13.4,29.97,WSW,248,1.0,6.0,80,0.00,,---,0.00,VWS V14.01,2013-02-03 23:45:00,
2013-02-03 18:50:00,18.5,13.4,29.97,SW,214,1.0,1.0,80,0.00,,,0.00,Wunderground v.1.15,2013-02-03 23:50:00,
2013-02-03 19:00:00,18.5,13.4,29.97,SW,225,1.0,6.0,80,0.00,,---,0.00,VWS V14.01,2013-02-04 00:00:00,
2013-02-03 19:15:00,18.5,13.4,29.98,SW,225,1.0,10.0,80,0.00,,---,0.00,VWS V14.01,2013-02-04 00:15:00,
2013-02-03 19:30:00,18.6,13.5,29.98,SW,225,1.0,5.0,80,0.00,,---,0.00,VWS V14.01,2013-02-04 00:30:00,
2013-02-03 19:45:00,18.6,13.2,29.98,SW,225,1.0,7.0,79,0.00,,---,0.00,VWS V14.01,2013-02-04 00:45:00,
2013-02-03 20:00:00,18.6,12.9,29.99,SW,225,2.0,7.0,78,0.00,,---,0.00,VWS V14.01,2013-02-04 01:00:00,
2013-02-03 20:15:00,18.5,12.5,29.99,WSW,248,2.0,10.0,77,0.00,,---,0.00,VWS V14.01,2013-02-04 01:15:00,
2013-02-03 20:30:00,18.5,12.5,29.99,SW,225,2.0,10.0,77,0.00,,---,0.00,VWS V14.01,2013-02-04 01:30:00,
2013-02-03 20:45:00,18.4,12.4,29.99,WSW,248,1.0,8.0,77,0.00,,---,0.00,VWS V14.01,2013-02-04 01:45:00,
2013-02-03 21:00:00,18.4,12.7,29.99,WSW,248,2.0,9.0,78,0.00,,---,0.00,VWS V14.01,2013-02-04 02:00:00,
2013-02-03 21:05:00,18.4,12.7,30.00,SW,236,2.0,2.0,78,0.00,,,0.00,Wunderground v.1.15,2013-02-04 02:05:00,
2013-02-03 21:15:00,18.3,12.6,30.00,West,259,1.0,1.0,78,0.00,,,0.00,Wunderground v.1.15,2013-02-04 02:15:00,
2013-02-03 21:30:00,18.5,13.1,30.00,WSW,240,1.0,1.0,79,0.00,,,0.00,Wunderground v.1.15,2013-02-04 02:30:00,
2013-02-03 21:35:00,18.6,13.5,30.00,West,280,1.0,1.0,80,0.00,,,0.00,Wunderground v.1.15,2013-02-04 02:35:00,
2013-02-03 21:45:00,18.8,13.7,30.01,WSW,248,1.0,7.0,80,0.00,,---,0.00,VWS V14.01,2013-02-04 02:45:00,
2013-02-03 21:50:00,18.8,13.7,30.01,WSW,243,2.0,2.0,80,0.00,,,0.00,Wunderground v.1.15,2013-02-04 02:50:00,
2013-02-03 22:00:00,18.8,13.7,30.01,WSW,242,1.0,5.0,80,0.00,,,0.00,Wunderground v.1.15,2013-02-04 03:00:00,
2013-02-03 22:15:00,18.8,13.9,30.01,WSW,253,2.0,2.0,81,0.00,,,0.00,Wunderground v.1.15,2013-02-04 03:15:00,
2013-02-03 22:30:00,19.0,14.7,30.02,WSW,248,2.0,13.0,83,0.00,,---,0.00,VWS V14.01,2013-02-04 03:30:00,
2013-02-03 22:40:00,19.0,15.2,30.02,West,259,3.0,3.0,85,0.00,,,0.00,Wunderground v.1.15,2013-02-04 03:40:00,
2013-02-03 22:45:00,18.9,15.1,30.02,WSW,248,3.0,12.0,85,0.00,,---,0.00,VWS V14.01,2013-02-04 03:45:00,
2013-02-03 23:00:00,18.9,15.4,30.02,WSW,248,2.0,9.0,86,0.00,,---,0.00,VWS V14.01,2013-02-04 04:00:00,
2013-02-03 23:15:00,18.8,15.6,30.03,WSW,249,1.0,2.0,87,0.00,,,0.00,Wunderground v.1.15,2013-02-04 04:15:00,
2013-02-03 23:30:00,19.1,12.8,30.03,WNW,295,2.0,2.0,76,0.00,,,0.00,Wunderground v.1.15,2013-02-04 04:30:00,
2013-02-03 23:45:00,19.0,11.8,30.04,West,270,2.0,6.0,73,0.00,,---,0.00,VWS V14.01,2013-02-04 04:45:00,
2013-02-03 23:50:00,19.0,11.5,30.04,NW,305,2.0,2.0,72,0.00,,,0.00,Wunderground v.1.15,2013-02-04 04:50:00,